Time;durP1;ratioP1;P1;durP2;ratioP2;P2;SDS_P1;SDS_P2;PMS_P1;PMS_P2;Temp;Humidity;BMP_temperature;BMP_pressure;BME280_temperature;BME280_humidity;BME280_pressure;Samples;Min_cycle;Max_cycle;Signal;HPM_P1;HPM_P2
2023/09/08 00:01:05;;;;;;;32.85;30.38;;;17.50;99.90;;;;;;6240584;23;20328;-84
2023/09/08 00:03:31;;;;;;;45.10;41.72;;;17.40;99.90;;;;;;6241206;23;20077;-84
2023/09/08 00:05:57;;;;;;;44.95;41.72;;;17.40;99.90;;;;;;6241485;23;20078;-84
2023/09/08 00:08:24;;;;;;;44.38;40.97;;;17.40;99.90;;;;;;6216208;23;20382;-84
2023/09/08 00:10:49;;;;;;;39.35;36.10;;;17.40;99.90;;;;;;6243559;22;20154;-84
2023/09/08 00:13:15;;;;;;;34.50;31.20;;;17.40;99.90;;;;;;6242968;23;20465;-84
2023/09/08 00:15:41;;;;;;;41.70;38.72;;;17.30;99.90;;;;;;6215863;23;20432;-84
2023/09/08 00:18:06;;;;;;;37.13;34.17;;;17.20;99.90;;;;;;6215580;23;20047;-85
2023/09/08 00:20:32;;;;;;;42.83;39.45;;;17.20;99.90;;;;;;6241155;23;20339;-84
2023/09/08 00:22:58;;;;;;;41.10;38.05;;;17.10;99.90;;;;;;6241347;23;20085;-84
2023/09/08 00:25:24;;;;;;;38.78;35.80;;;17.10;99.90;;;;;;6241131;23;20042;-84
2023/09/08 00:27:49;;;;;;;38.63;35.45;;;17.00;99.90;;;;;;6215530;23;20471;-84
2023/09/08 00:30:15;;;;;;;45.90;42.67;;;17.00;99.90;;;;;;6240457;23;20025;-84
2023/09/08 00:32:41;;;;;;;46.22;42.60;;;17.00;99.90;;;;;;6242888;23;20004;-84
2023/09/08 00:35:08;;;;;;;49.85;46.38;;;16.90;99.90;;;;;;6241067;23;20091;-84
2023/09/08 00:37:36;;;;;;;40.42;37.25;;;16.70;99.90;;;;;;6215626;23;20023;-85
2023/09/08 00:40:08;;;;;;;50.33;46.75;;;16.90;99.90;;;;;;6241021;23;20731;-85
2023/09/08 00:42:34;;;;;;;46.50;43.03;;;16.80;99.90;;;;;;6215682;23;20016;-84
2023/09/08 00:45:00;;;;;;;52.30;48.67;;;16.20;99.90;;;;;;6214981;23;20015;-85
2023/09/08 00:47:25;;;;;;;58.05;53.92;;;16.90;99.90;;;;;;6240531;23;20024;-85
2023/09/08 00:49:51;;;;;;;46.03;41.58;;;16.90;99.90;;;;;;6241187;23;20016;-84
2023/09/08 00:52:17;;;;;;;38.15;35.15;;;16.80;99.90;;;;;;6240847;23;20008;-84
2023/09/08 00:54:43;;;;;;;53.55;49.95;;;17.00;99.90;;;;;;6242636;23;20300;-85
2023/09/08 00:57:10;;;;;;;50.80;46.97;;;16.70;99.90;;;;;;6240539;23;20085;-85
2023/09/08 00:59:36;;;;;;;54.63;50.88;;;17.00;99.90;;;;;;6242089;22;20008;-85
2023/09/08 01:02:02;;;;;;;36.05;33.28;;;16.70;99.90;;;;;;6265895;22;20012;-85
2023/09/08 01:04:28;;;;;;;43.35;40.13;;;16.70;99.90;;;;;;6266345;22;20020;-85
2023/09/08 01:06:56;;;;;;;38.97;35.63;;;16.70;99.90;;;;;;6242567;22;20534;-84
2023/09/08 01:09:23;;;;;;;56.05;51.85;;;16.70;99.90;;;;;;6240733;23;20012;-85
2023/09/08 01:11:48;;;;;;;48.25;44.22;;;16.70;99.90;;;;;;6241096;23;20005;-85
2023/09/08 01:14:19;;;;;;;46.25;42.90;;;16.60;99.90;;;;;;6214604;23;20016;-85
2023/09/08 01:16:48;;;;;;;55.78;51.83;;;16.70;99.90;;;;;;6215383;23;20024;-85
2023/09/08 01:19:16;;;;;;;49.25;45.55;;;16.70;99.90;;;;;;6215349;23;20012;-85
2023/09/08 01:22:17;;;;;;;48.88;45.40;;;16.70;99.90;;;;;;6215296;23;20024;-85
2023/09/08 01:25:23;;;;;;;43.88;40.38;;;16.70;99.90;;;;;;6240519;23;20012;-85
2023/09/08 01:27:55;;;;;;;41.60;38.40;;;16.60;99.90;;;;;;6215363;23;20023;-85
2023/09/08 01:30:23;;;;;;;43.65;40.30;;;16.70;99.90;;;;;;6242387;22;20040;-85
2023/09/08 01:32:50;;;;;;;55.42;51.33;;;16.60;99.90;;;;;;6266123;22;20038;-85
2023/09/08 01:35:15;;;;;;;50.97;47.33;;;16.60;99.90;;;;;;6242165;22;20008;-85
2023/09/08 01:37:44;;;;;;;50.83;47.15;;;16.60;99.90;;;;;;6240483;23;20016;-85
2023/09/08 01:40:11;;;;;;;54.10;50.00;;;16.60;99.90;;;;;;6266473;22;20012;-85
2023/09/08 01:42:38;;;;;;;48.30;44.50;;;16.60;99.90;;;;;;6239778;23;20108;-85
2023/09/08 01:45:04;;;;;;;48.33;44.78;;;16.60;99.90;;;;;;6215658;23;20008;-85
2023/09/08 01:47:31;;;;;;;45.45;41.97;;;16.60;99.90;;;;;;6240495;23;20012;-85
2023/09/08 01:49:56;;;;;;;53.03;48.90;;;16.50;99.90;;;;;;6240336;23;20020;-85
2023/09/08 01:52:22;;;;;;;46.08;42.25;;;16.60;99.90;;;;;;6240672;23;20562;-84
2023/09/08 01:54:48;;;;;;;55.03;50.92;;;16.20;99.90;;;;;;6240976;23;20431;-84
2023/09/08 01:57:14;;;;;;;47.80;44.08;;;16.40;99.90;;;;;;6239781;23;20020;-85
2023/09/08 01:59:40;;;;;;;60.75;56.40;;;16.40;99.90;;;;;;6240508;23;20100;-85
2023/09/08 02:02:06;;;;;;;58.15;53.80;;;16.30;99.90;;;;;;6240629;23;20074;-85
2023/09/08 02:04:32;;;;;;;55.05;50.53;;;16.30;99.90;;;;;;6240713;23;20107;-85
2023/09/08 02:06:58;;;;;;;47.00;43.45;;;16.30;99.90;;;;;;6239987;23;20027;-85
2023/09/08 02:09:38;;;;;;;59.28;54.72;;;16.30;99.90;;;;;;6240156;23;20439;-85
2023/09/08 02:12:04;;;;;;;58.10;53.50;;;16.30;99.90;;;;;;6239722;23;20074;-85
2023/09/08 02:14:30;;;;;;;67.40;62.78;;;16.20;99.90;;;;;;6240437;23;20008;-85
2023/09/08 02:16:56;;;;;;;50.70;46.88;;;16.30;99.90;;;;;;6240058;23;20107;-85
2023/09/08 02:19:23;;;;;;;53.42;49.50;;;16.20;99.90;;;;;;6214459;23;20054;-85
2023/09/08 02:21:48;;;;;;;51.90;47.88;;;16.20;99.90;;;;;;6241899;23;20091;-85
2023/09/08 02:24:14;;;;;;;55.70;51.63;;;16.10;99.90;;;;;;6240320;23;20606;-84
2023/09/08 02:26:41;;;;;;;53.45;49.40;;;16.10;99.90;;;;;;6265192;22;20016;-85
2023/09/08 02:29:07;;;;;;;50.85;46.83;;;16.10;99.90;;;;;;6240562;23;20099;-85
2023/09/08 02:31:33;;;;;;;61.72;57.00;;;16.10;99.90;;;;;;6265859;22;20138;-85
2023/09/08 02:34:03;;;;;;;59.67;55.33;;;16.10;99.90;;;;;;6266038;22;20096;-85
2023/09/08 02:36:28;;;;;;;52.88;49.00;;;16.10;99.90;;;;;;6241479;22;20019;-85
2023/09/08 02:38:55;;;;;;;53.63;49.70;;;16.10;99.90;;;;;;6240420;23;20016;-85
2023/09/08 02:41:22;;;;;;;52.13;47.88;;;16.10;99.90;;;;;;6214281;23;20008;-85
2023/09/08 02:43:48;;;;;;;53.58;49.75;;;16.10;99.90;;;;;;6240468;23;20478;-85
2023/09/08 02:46:14;;;;;;;55.10;51.15;;;16.10;99.90;;;;;;6265759;22;20565;-85
2023/09/08 02:48:40;;;;;;;55.63;51.40;;;16.00;99.90;;;;;;6240130;23;20013;-85
2023/09/08 02:51:06;;;;;;;62.50;57.28;;;16.00;99.90;;;;;;6239854;23;20091;-85
2023/09/08 02:53:32;;;;;;;57.78;53.75;;;16.10;99.90;;;;;;6240179;23;20036;-84
2023/09/08 02:56:05;;;;;;;54.50;50.55;;;16.00;99.90;;;;;;6214686;23;20062;-85
2023/09/08 02:58:34;;;;;;;59.95;55.50;;;16.00;99.90;;;;;;6214929;23;20507;-85
2023/09/08 03:01:14;;;;;;;57.25;53.25;;;15.90;99.90;;;;;;6240341;23;20016;-85
2023/09/08 03:03:41;;;;;;;48.50;44.60;;;15.90;99.90;;;;;;6215044;23;20055;-85
2023/09/08 03:06:08;;;;;;;59.03;54.63;;;15.90;99.90;;;;;;6242046;22;20343;-85
2023/09/08 03:08:39;;;;;;;50.97;46.85;;;15.80;99.90;;;;;;6214676;23;20012;-85
2023/09/08 03:11:05;;;;;;;49.50;45.85;;;15.80;99.90;;;;;;6239079;23;20028;-85
2023/09/08 03:13:35;;;;;;;45.35;41.75;;;15.80;99.90;;;;;;6239670;23;20039;-85
2023/09/08 03:16:08;;;;;;;57.22;53.10;;;15.80;99.90;;;;;;6239917;23;20008;-85
2023/09/08 03:18:37;;;;;;;56.35;52.17;;;15.80;99.90;;;;;;6241786;22;20320;-85
2023/09/08 03:21:09;;;;;;;55.08;51.15;;;15.80;99.90;;;;;;6241752;22;20014;-85
2023/09/08 03:23:45;;;;;;;60.30;55.83;;;15.80;99.90;;;;;;6239791;23;20074;-85
2023/09/08 03:26:11;;;;;;;54.53;50.60;;;15.80;99.90;;;;;;6242086;23;20365;-84
2023/09/08 03:28:38;;;;;;;57.65;53.17;;;15.70;99.90;;;;;;6216184;23;20038;-84
2023/09/08 03:31:07;;;;;;;56.90;52.70;;;15.70;99.90;;;;;;6266731;22;20016;-85
2023/09/08 03:33:33;;;;;;;53.00;49.05;;;15.40;99.90;;;;;;6215916;23;20012;-84
2023/09/08 03:35:58;;;;;;;52.33;48.22;;;15.60;99.90;;;;;;6241325;23;20090;-85
2023/09/08 03:38:24;;;;;;;49.03;45.17;;;15.60;99.90;;;;;;6242820;23;20431;-85
2023/09/08 03:40:50;;;;;;;49.95;46.17;;;15.60;99.90;;;;;;6266929;22;20012;-84
2023/09/08 03:43:16;;;;;;;51.70;47.95;;;15.60;99.90;;;;;;6241406;23;20016;-85
2023/09/08 03:45:42;;;;;;;55.25;51.03;;;15.60;99.90;;;;;;6241460;23;20023;-84
2023/09/08 03:48:08;;;;;;;53.70;49.33;;;15.50;99.90;;;;;;6241480;23;20372;-85
2023/09/08 03:50:35;;;;;;;55.55;51.60;;;15.50;99.90;;;;;;6241540;23;20101;-85
2023/09/08 03:53:00;;;;;;;55.60;51.58;;;15.50;99.90;;;;;;6240742;23;20431;-85
2023/09/08 03:55:26;;;;;;;55.75;51.80;;;15.50;99.90;;;;;;6216428;23;20018;-85
2023/09/08 03:57:55;;;;;;;58.13;53.63;;;15.50;99.90;;;;;;6241843;23;20027;-85
2023/09/08 04:00:22;;;;;;;52.10;48.08;;;15.40;99.90;;;;;;6244708;23;20101;-84
2023/09/08 04:02:49;;;;;;;51.58;47.85;;;15.40;99.90;;;;;;6243487;22;20466;-85
2023/09/08 04:05:15;;;;;;;56.13;51.83;;;15.30;99.90;;;;;;6242546;22;20016;-85
2023/09/08 04:07:41;;;;;;;48.40;44.65;;;15.30;99.90;;;;;;6265727;22;20443;-84
2023/09/08 04:10:08;;;;;;;57.35;53.30;;;15.30;99.90;;;;;;6266675;22;20008;-85
2023/09/08 04:12:33;;;;;;;50.58;46.67;;;15.30;99.90;;;;;;6243259;23;20008;-85
2023/09/08 04:15:03;;;;;;;53.20;49.25;;;15.30;99.90;;;;;;6241855;23;20016;-85
2023/09/08 04:17:29;;;;;;;48.03;44.30;;;15.20;99.90;;;;;;6241291;23;20411;-85
2023/09/08 04:19:54;;;;;;;52.88;48.97;;;15.20;99.90;;;;;;6215589;23;20039;-85
2023/09/08 04:22:20;;;;;;;51.08;47.00;;;15.20;99.90;;;;;;6241987;22;20427;-84
2023/09/08 04:24:46;;;;;;;54.53;50.35;;;15.20;99.90;;;;;;6240837;23;20066;-85
2023/09/08 04:27:12;;;;;;;52.55;48.55;;;15.10;99.90;;;;;;6241451;23;20019;-85
2023/09/08 04:29:37;;;;;;;52.90;49.00;;;15.30;99.90;;;;;;6215515;23;20020;-85
2023/09/08 04:32:08;;;;;;;47.65;44.03;;;15.00;99.90;;;;;;6241331;23;20196;-85
2023/09/08 04:34:41;;;;;;;57.05;52.53;;;15.00;99.90;;;;;;6241520;23;20020;-85
2023/09/08 04:37:07;;;;;;;52.63;48.60;;;14.90;99.90;;;;;;6239745;23;20109;-85
2023/09/08 04:39:34;;;;;;;54.10;49.97;;;15.10;99.90;;;;;;6215923;23;20077;-85
2023/09/08 04:42:01;;;;;;;53.45;49.28;;;14.90;99.90;;;;;;6240994;23;20117;-85
2023/09/08 04:44:27;;;;;;;54.40;50.17;;;14.90;99.90;;;;;;6240784;23;20110;-85
2023/09/08 04:46:53;;;;;;;48.90;45.30;;;14.90;99.90;;;;;;6240663;23;20020;-85
2023/09/08 04:49:19;;;;;;;45.30;41.20;;;14.90;99.90;;;;;;6241521;23;20085;-85
2023/09/08 04:51:44;;;;;;;52.22;48.25;;;14.90;99.90;;;;;;6240086;23;20550;-84
2023/09/08 04:54:10;;;;;;;59.17;54.67;;;14.90;99.90;;;;;;6243801;23;20016;-85
2023/09/08 04:56:36;;;;;;;58.20;53.80;;;14.90;99.90;;;;;;6242749;22;20015;-85
2023/09/08 04:59:02;;;;;;;57.33;52.97;;;14.90;99.90;;;;;;6241316;23;20077;-85
2023/09/08 05:01:29;;;;;;;60.17;55.50;;;14.90;99.90;;;;;;6215524;23;20019;-84
2023/09/08 05:03:55;;;;;;;58.28;53.83;;;14.90;99.90;;;;;;6215002;23;20095;-84
2023/09/08 05:06:21;;;;;;;51.22;47.08;;;14.90;99.90;;;;;;6241723;23;20051;-84
2023/09/08 05:08:47;;;;;;;48.92;44.90;;;14.90;99.90;;;;;;6240804;23;20016;-85
2023/09/08 05:11:12;;;;;;;57.63;53.35;;;15.00;99.90;;;;;;6242276;22;20005;-84
2023/09/08 05:13:38;;;;;;;58.95;54.55;;;15.00;99.90;;;;;;6242894;23;20403;-84
2023/09/08 05:16:13;;;;;;;49.58;45.25;;;15.00;99.90;;;;;;6242657;23;20008;-84
2023/09/08 05:18:41;;;;;;;52.10;48.00;;;15.00;99.90;;;;;;6242322;23;20012;-84
2023/09/08 05:21:07;;;;;;;48.58;44.60;;;15.10;99.90;;;;;;6242111;23;20016;-84
2023/09/08 05:23:37;;;;;;;47.22;43.42;;;15.10;99.90;;;;;;6243413;22;20046;-84
2023/09/08 05:26:02;;;;;;;49.28;45.20;;;15.10;99.90;;;;;;6215893;23;20016;-84
2023/09/08 05:28:28;;;;;;;49.58;45.78;;;15.30;99.90;;;;;;6241129;23;20512;-84
2023/09/08 05:30:54;;;;;;;53.20;49.08;;;15.20;99.90;;;;;;6265373;22;20316;-84
2023/09/08 05:33:20;;;;;;;52.13;48.10;;;15.20;99.90;;;;;;6240081;23;20012;-84
2023/09/08 05:35:47;;;;;;;44.65;40.92;;;15.20;99.90;;;;;;6241549;23;20455;-84
2023/09/08 05:38:12;;;;;;;48.15;44.45;;;15.20;99.90;;;;;;6241901;23;20070;-84
2023/09/08 05:40:38;;;;;;;46.92;42.92;;;15.20;99.90;;;;;;6241734;23;20016;-85
2023/09/08 05:43:07;;;;;;;49.60;45.83;;;15.30;99.90;;;;;;6240263;23;20016;-83
2023/09/08 05:45:34;;;;;;;50.75;46.92;;;15.30;99.90;;;;;;6240306;23;20008;-84
2023/09/08 05:48:03;;;;;;;52.22;48.25;;;15.30;99.90;;;;;;6239537;23;20347;-82
2023/09/08 05:50:28;;;;;;;51.35;47.53;;;15.40;99.90;;;;;;6241034;23;20013;-83
2023/09/08 05:52:54;;;;;;;47.97;43.75;;;15.40;99.90;;;;;;6239888;23;20008;-83
2023/09/08 05:55:20;;;;;;;47.85;44.17;;;15.50;99.90;;;;;;6214860;23;20083;-84
2023/09/08 05:57:46;;;;;;;48.08;44.33;;;15.50;99.90;;;;;;6215907;23;20020;-85
2023/09/08 06:00:12;;;;;;;42.92;39.10;;;15.50;99.90;;;;;;6244034;23;20012;-85
2023/09/08 06:02:38;;;;;;;45.33;41.80;;;15.60;99.90;;;;;;6245777;22;20410;-83
2023/09/08 06:05:07;;;;;;;39.90;36.58;;;15.60;99.90;;;;;;6244168;23;20082;-85
2023/09/08 06:07:32;;;;;;;47.38;43.55;;;15.60;99.90;;;;;;6243607;23;20060;-85
2023/09/08 06:09:58;;;;;;;43.17;39.58;;;15.70;99.90;;;;;;6217624;23;20019;-85
2023/09/08 06:12:25;;;;;;;38.63;35.45;;;15.80;99.90;;;;;;6217768;23;20020;-84
2023/09/08 06:14:51;;;;;;;42.92;39.58;;;15.70;99.90;;;;;;6242763;23;20016;-85
2023/09/08 06:17:16;;;;;;;41.47;38.22;;;16.00;99.90;;;;;;6243101;23;20016;-85
2023/09/08 06:19:42;;;;;;;27.08;24.52;;;16.60;99.90;;;;;;6244098;22;20065;-86
2023/09/08 06:22:08;;;;;;;32.00;29.00;;;17.80;99.90;;;;;;6243373;23;20091;-85
2023/09/08 06:24:36;;;;;;;27.90;25.40;;;19.20;99.90;;;;;;6217480;23;20023;-84
2023/09/08 06:27:08;;;;;;;26.77;24.23;;;20.40;99.90;;;;;;6218187;23;20022;-85
2023/09/08 06:29:39;;;;;;;24.75;22.73;;;21.60;99.90;;;;;;6243890;23;20044;-85
2023/09/08 06:32:06;;;;;;;31.52;28.77;;;22.50;99.90;;;;;;6216974;23;20334;-85
2023/09/08 06:34:35;;;;;;;35.53;32.88;;;22.90;99.90;;;;;;6241169;23;20016;-83
2023/09/08 06:37:01;;;;;;;28.27;25.77;;;22.30;99.90;;;;;;6266201;22;20091;-84
2023/09/08 06:39:28;;;;;;;27.33;25.02;;;21.90;99.90;;;;;;6213962;23;20012;-84
2023/09/08 06:41:54;;;;;;;33.10;30.35;;;21.30;99.90;;;;;;6240560;23;20426;-85
2023/09/08 06:44:21;;;;;;;28.02;25.67;;;20.80;99.90;;;;;;6215203;23;20069;-85
2023/09/08 06:46:47;;;;;;;34.30;31.75;;;20.30;99.90;;;;;;6241452;22;20012;-84
2023/09/08 06:49:12;;;;;;;27.67;25.27;;;20.00;99.90;;;;;;6215183;23;20008;-84
2023/09/08 06:51:38;;;;;;;33.58;30.88;;;20.10;99.90;;;;;;6242304;23;20044;-85
2023/09/08 06:54:07;;;;;;;35.75;33.08;;;19.70;99.90;;;;;;6266133;22;20451;-84
2023/09/08 06:56:33;;;;;;;31.95;29.35;;;19.50;99.90;;;;;;6242826;23;20012;-85
2023/09/08 06:58:59;;;;;;;31.60;29.30;;;19.50;99.90;;;;;;6241445;23;20013;-85
2023/09/08 07:01:33;;;;;;;23.67;21.58;;;19.50;99.90;;;;;;6218833;23;20386;-84
2023/09/08 07:03:59;;;;;;;34.03;31.40;;;19.50;99.90;;;;;;6217500;23;20074;-84
2023/09/08 07:06:25;;;;;;;36.17;33.42;;;19.40;99.90;;;;;;6244415;23;20031;-85
2023/09/08 07:08:50;;;;;;;36.90;34.25;;;19.50;99.90;;;;;;6242920;23;20020;-85
2023/09/08 07:11:16;;;;;;;31.80;29.15;;;19.60;99.90;;;;;;6243856;23;20034;-84
2023/09/08 07:13:42;;;;;;;32.80;30.38;;;19.70;99.90;;;;;;6241902;23;20026;-84
2023/09/08 07:16:08;;;;;;;36.03;33.30;;;19.70;99.90;;;;;;6242214;23;20012;-84
2023/09/08 07:18:38;;;;;;;28.27;25.95;;;19.80;99.90;;;;;;6242528;23;20012;-85
2023/09/08 07:21:06;;;;;;;33.75;30.88;;;19.80;99.90;;;;;;6243735;23;20012;-85
2023/09/08 07:23:36;;;;;;;33.05;30.77;;;19.90;99.90;;;;;;6243095;23;20031;-85
2023/09/08 07:26:06;;;;;;;33.97;31.52;;;20.00;99.90;;;;;;6217821;23;20020;-83
2023/09/08 07:28:34;;;;;;;34.47;31.48;;;20.20;99.90;;;;;;6243260;23;20016;-84
2023/09/08 07:31:04;;;;;;;34.40;31.50;;;20.20;99.90;;;;;;6242828;23;20078;-85
2023/09/08 07:33:30;;;;;;;28.33;26.23;;;20.20;99.90;;;;;;6218149;23;20375;-85
2023/09/08 07:35:56;;;;;;;30.52;28.27;;;20.30;99.90;;;;;;6245178;23;20019;-84
2023/09/08 07:38:21;;;;;;;25.70;23.38;;;20.40;99.90;;;;;;6245948;23;20442;-85
2023/09/08 07:40:47;;;;;;;31.38;29.13;;;20.40;99.90;;;;;;6244081;23;20335;-85
2023/09/08 07:43:13;;;;;;;27.63;25.63;;;20.50;99.90;;;;;;6218450;23;20326;-85
2023/09/08 07:45:40;;;;;;;27.17;24.92;;;20.50;99.90;;;;;;6243753;23;20040;-84
2023/09/08 07:48:06;;;;;;;26.17;23.88;;;20.60;99.90;;;;;;6218653;23;20016;-85
2023/09/08 07:50:35;;;;;;;29.77;27.52;;;20.70;99.90;;;;;;6244316;23;20082;-84
2023/09/08 07:53:01;;;;;;;30.20;27.70;;;20.70;99.90;;;;;;6219380;23;20058;-85
2023/09/08 07:55:29;;;;;;;34.65;32.08;;;20.80;99.90;;;;;;6244532;23;20012;-84
2023/09/08 07:57:57;;;;;;;27.42;24.98;;;20.90;99.90;;;;;;6244902;23;20070;-84
2023/09/08 08:00:23;;;;;;;29.58;27.08;;;20.90;99.90;;;;;;6218710;23;20095;-84
2023/09/08 08:02:54;;;;;;;30.63;28.33;;;21.00;99.90;;;;;;6245372;23;20019;-85
2023/09/08 08:05:20;;;;;;;38.30;35.42;;;21.00;99.90;;;;;;6270367;22;20007;-85
2023/09/08 08:07:46;;;;;;;33.95;31.63;;;21.10;99.90;;;;;;6220436;23;20017;-85
2023/09/08 08:10:12;;;;;;;34.92;32.63;;;21.10;99.90;;;;;;6245414;23;20012;-84
2023/09/08 08:12:39;;;;;;;35.10;32.72;;;21.30;99.90;;;;;;6220698;23;20363;-85
2023/09/08 08:15:05;;;;;;;28.75;26.52;;;21.10;99.90;;;;;;6247365;22;20012;-85
2023/09/08 08:17:31;;;;;;;35.95;33.10;;;21.30;99.90;;;;;;6245666;23;20012;-85
2023/09/08 08:20:06;;;;;;;42.30;39.65;;;21.40;99.90;;;;;;6220675;23;20471;-84
2023/09/08 08:22:38;;;;;;;39.40;36.90;;;21.60;99.90;;;;;;6271250;22;20020;-85
2023/09/08 08:25:05;;;;;;;48.25;45.35;;;21.60;99.90;;;;;;6271297;22;20183;-85
2023/09/08 08:27:31;;;;;;;43.97;40.95;;;21.70;99.90;;;;;;6245804;23;20023;-85
2023/09/08 08:30:00;;;;;;;27.25;25.15;;;21.80;99.90;;;;;;6245232;23;20082;-84
2023/09/08 08:32:27;;;;;;;24.13;22.27;;;22.00;99.90;;;;;;6217395;23;20012;-84
2023/09/08 08:34:53;;;;;;;56.17;52.15;;;22.20;99.90;;;;;;6267735;22;20065;-84
2023/09/08 08:37:19;;;;;;;32.65;30.40;;;22.30;99.90;;;;;;6242956;23;20020;-84
2023/09/08 08:39:48;;;;;;;35.63;33.05;;;22.50;99.90;;;;;;6242835;23;20018;-84
2023/09/08 08:42:14;;;;;;;53.75;50.50;;;22.60;99.90;;;;;;6244113;22;20008;-84
2023/09/08 08:44:40;;;;;;;55.72;52.00;;;22.80;99.90;;;;;;6243543;22;20520;-84
2023/09/08 08:47:11;;;;;;;59.90;56.45;;;22.90;99.90;;;;;;6216761;23;20099;-84
2023/09/08 08:49:38;;;;;;;45.67;42.63;;;23.10;99.90;;;;;;6216972;23;20016;-84
2023/09/08 08:52:07;;;;;;;57.40;53.92;;;23.10;99.90;;;;;;6242903;23;20235;-83
2023/09/08 08:54:39;;;;;;;51.70;48.55;;;23.30;99.90;;;;;;6217169;23;20378;-84
2023/09/08 08:57:06;;;;;;;46.80;44.00;;;23.40;99.90;;;;;;6219402;23;20455;-84
2023/09/08 08:59:35;;;;;;;29.90;27.80;;;23.50;99.90;;;;;;6216208;23;20024;-83
2023/09/08 09:02:05;;;;;;;19.80;18.17;;;24.00;99.90;;;;;;6241143;23;20350;-84
2023/09/08 09:04:31;;;;;;;39.28;36.67;;;24.90;99.90;;;;;;6243256;22;20344;-84
2023/09/08 09:06:58;;;;;;;36.72;34.22;;;26.10;99.90;;;;;;6243286;22;20073;-85
2023/09/08 09:09:25;;;;;;;34.42;31.88;;;27.00;99.90;;;;;;6242717;23;20320;-85
2023/09/08 09:11:50;;;;;;;31.58;29.45;;;27.80;99.90;;;;;;6215766;23;20039;-84
2023/09/08 09:14:17;;;;;;;49.22;46.35;;;28.40;99.90;;;;;;6243867;23;20459;-84
2023/09/08 09:16:43;;;;;;;38.33;35.70;;;29.00;99.90;;;;;;6214829;23;20012;-85
2023/09/08 09:19:10;;;;;;;82.13;77.25;;;29.10;99.90;;;;;;6263808;22;20008;-84
2023/09/08 09:21:47;;;;;;;133.95;126.35;;;29.50;99.90;;;;;;6240042;22;20047;-84
2023/09/08 09:24:33;;;;;;;82.43;77.47;;;29.80;99.90;;;;;;6213501;23;20008;-84
2023/09/08 09:27:05;;;;;;;156.23;147.13;;;30.00;99.90;;;;;;6212971;23;20498;-84
2023/09/08 09:29:31;;;;;;;1018.22;926.17;;;29.60;99.90;;;;;;6240707;22;20011;-85
2023/09/08 09:32:05;;;;;;;1458.50;999.90;;;28.70;99.90;;;;;;6240319;23;20015;-85
2023/09/08 09:34:35;;;;;;;1253.80;999.90;;;28.00;99.90;;;;;;6265165;22;20091;-83
2023/09/08 09:37:00;;;;;;;1999.90;999.90;;;27.40;99.90;;;;;;6239507;23;20012;-85
2023/09/08 09:39:27;;;;;;;1999.90;999.90;;;27.10;99.90;;;;;;6240932;22;20012;-85
2023/09/08 09:41:57;;;;;;;1999.90;999.90;;;26.80;99.90;;;;;;6213876;23;20359;-85
2023/09/08 09:44:24;;;;;;;1999.90;999.90;;;26.70;99.90;;;;;;6239793;23;20388;-85
2023/09/08 09:46:52;;;;;;;1999.90;999.90;;;26.60;99.90;;;;;;6241160;22;20087;-84
2023/09/08 09:49:18;;;;;;;1999.90;999.90;;;26.50;99.90;;;;;;6239363;23;20008;-85
2023/09/08 09:51:49;;;;;;;1999.90;999.90;;;26.50;99.90;;;;;;6240723;22;20207;-85
2023/09/08 09:54:15;;;;;;;1999.90;988.13;;;26.40;99.90;;;;;;6241227;22;20032;-85
2023/09/08 09:56:42;;;;;;;1999.90;495.35;;;26.40;99.90;;;;;;6238171;23;20466;-85
2023/09/08 09:59:11;;;;;;;1999.90;999.90;;;26.40;99.90;;;;;;6239167;23;20012;-85
2023/09/08 10:01:38;;;;;;;1999.90;999.90;;;26.50;99.90;;;;;;6241189;22;20004;-85
2023/09/08 10:04:10;;;;;;;1999.90;830.08;;;26.60;99.90;;;;;;6240216;22;20020;-85
2023/09/08 10:06:39;;;;;;;1999.90;961.03;;;26.60;99.90;;;;;;6239240;23;20091;-85
2023/09/08 10:09:13;;;;;;;1999.90;999.90;;;26.70;99.90;;;;;;6213509;23;20016;-85
2023/09/08 10:11:44;;;;;;;1999.90;999.90;;;26.80;99.90;;;;;;6238861;23;20034;-85
2023/09/08 10:14:14;;;;;;;1999.90;999.90;;;26.80;99.90;;;;;;6264972;22;20109;-85
2023/09/08 10:16:42;;;;;;;1999.90;348.17;;;26.90;99.90;;;;;;6264406;22;20012;-85
2023/09/08 10:19:09;;;;;;;1999.90;999.90;;;26.90;99.90;;;;;;6238985;23;20074;-85
2023/09/08 10:21:42;;;;;;;1999.90;999.90;;;27.00;99.90;;;;;;6238640;23;20270;-85
2023/09/08 10:24:23;;;;;;;1999.90;999.90;;;27.10;99.90;;;;;;6239791;22;20044;-86
2023/09/08 10:27:04;;;;;;;1999.90;999.90;;;27.20;99.90;;;;;;6213474;23;20078;-84
2023/09/08 10:29:31;;;;;;;1999.90;999.90;;;27.20;99.90;;;;;;6240885;22;20070;-85
2023/09/08 10:31:57;;;;;;;1999.90;999.90;;;27.20;99.90;;;;;;6238877;23;20012;-85
2023/09/08 10:34:25;;;;;;;1999.90;811.45;;;27.20;99.90;;;;;;6213416;23;20008;-85
2023/09/08 10:36:51;;;;;;;1999.90;999.90;;;27.30;99.90;;;;;;6240621;22;20016;-85
2023/09/08 10:39:38;;;;;;;1999.90;999.90;;;27.40;99.90;;;;;;6264002;22;20020;-85
2023/09/08 10:42:34;;;;;;;1999.90;999.90;;;27.50;99.90;;;;;;6213547;23;20016;-85
2023/09/08 10:45:20;;;;;;;1999.90;999.90;;;27.60;99.90;;;;;;6217589;23;20091;-86
2023/09/08 10:47:48;;;;;;;1999.90;999.90;;;27.60;99.90;;;;;;6240711;22;20012;-85
2023/09/08 10:50:18;;;;;;;1999.90;999.90;;;27.60;99.90;;;;;;6241467;22;20342;-85
2023/09/08 10:52:45;;;;;;;1999.90;999.90;;;27.70;99.90;;;;;;6214093;23;20043;-85
2023/09/08 10:55:12;;;;;;;1999.90;999.90;;;27.80;99.90;;;;;;6238718;23;20019;-85
2023/09/08 10:57:44;;;;;;;1999.90;999.90;;;27.90;99.90;;;;;;6239796;23;20071;-86
2023/09/08 11:00:12;;;;;;;1999.90;999.90;;;28.00;99.90;;;;;;6239412;23;20016;-86
2023/09/08 11:03:00;;;;;;;1999.90;999.90;;;28.00;99.90;;;;;;6239307;23;20009;-85
2023/09/08 11:05:26;;;;;;;1999.90;999.90;;;28.10;99.90;;;;;;6212776;23;20019;-85
2023/09/08 11:07:53;;;;;;;1999.90;999.90;;;28.10;99.90;;;;;;6212605;23;20020;-85
2023/09/08 11:10:19;;;;;;;1999.90;999.90;;;28.20;99.90;;;;;;6264699;22;20062;-85
2023/09/08 11:12:51;;;;;;;1999.90;999.90;;;28.20;99.90;;;;;;6264121;22;20012;-85
2023/09/08 11:15:17;;;;;;;1999.90;999.90;;;28.20;99.90;;;;;;6213889;23;20023;-85
2023/09/08 11:17:42;;;;;;;1999.90;999.90;;;28.30;99.90;;;;;;6213147;23;20012;-86
2023/09/08 11:20:10;;;;;;;1999.90;999.90;;;28.30;99.90;;;;;;6213569;23;20023;-85
2023/09/08 11:22:39;;;;;;;1999.90;999.90;;;28.40;99.90;;;;;;6238124;23;20020;-85
2023/09/08 11:25:11;;;;;;;1999.90;999.90;;;28.50;99.90;;;;;;6240656;22;20083;-85
2023/09/08 11:27:40;;;;;;;1999.90;999.90;;;28.50;99.90;;;;;;6238949;23;20101;-86
2023/09/08 11:30:08;;;;;;;1999.90;999.90;;;28.50;99.90;;;;;;6239233;23;20091;-86
2023/09/08 11:32:36;;;;;;;1999.90;999.90;;;28.50;99.90;;;;;;6213983;23;20498;-86
2023/09/08 11:35:07;;;;;;;1999.90;999.90;;;28.50;99.90;;;;;;6239259;23;20012;-85
2023/09/08 11:37:36;;;;;;;1999.90;999.90;;;28.70;99.90;;;;;;6263986;22;20094;-85
2023/09/08 11:40:09;;;;;;;1999.90;999.90;;;28.70;99.90;;;;;;6240935;22;20027;-85
2023/09/08 11:42:35;;;;;;;1999.90;999.90;;;28.80;99.90;;;;;;6239306;23;20016;-85
2023/09/08 11:45:03;;;;;;;1999.90;999.90;;;28.90;99.90;;;;;;6239193;23;20181;-86
2023/09/08 11:47:30;;;;;;;1999.90;999.90;;;28.90;99.70;;;;;;6265918;22;20016;-85
2023/09/08 11:49:57;;;;;;;1999.90;999.90;;;29.00;99.90;;;;;;6242714;22;20370;-86
2023/09/08 11:52:24;;;;;;;1999.90;999.90;;;29.10;99.90;;;;;;6240129;23;20012;-85
2023/09/08 11:54:51;;;;;;;1999.90;999.90;;;29.20;99.90;;;;;;6240567;23;20008;-85
2023/09/08 11:57:17;;;;;;;1999.90;999.90;;;29.10;99.90;;;;;;6240332;23;20503;-85
2023/09/08 11:59:46;;;;;;;1999.90;999.90;;;29.10;98.60;;;;;;6242764;22;20397;-85
2023/09/08 12:02:12;;;;;;;1999.90;999.90;;;29.20;99.90;;;;;;6215310;23;20062;-85
2023/09/08 12:04:38;;;;;;;1999.90;999.90;;;29.30;99.40;;;;;;6240174;23;20022;-85
2023/09/08 12:07:04;;;;;;;1999.90;999.90;;;29.30;99.10;;;;;;6242221;22;20343;-85
2023/09/08 12:09:31;;;;;;;1999.90;999.90;;;29.40;99.30;;;;;;6242049;22;20012;-85
2023/09/08 12:11:58;;;;;;;1999.90;999.90;;;29.40;99.70;;;;;;6215049;23;20008;-85
2023/09/08 12:14:41;;;;;;;1999.90;999.90;;;29.50;99.60;;;;;;6242591;22;20335;-85
2023/09/08 12:17:08;;;;;;;1999.90;999.90;;;29.50;98.70;;;;;;6241595;22;20423;-85
2023/09/08 12:19:37;;;;;;;1999.90;999.90;;;29.50;99.00;;;;;;6240779;23;20050;-85
2023/09/08 12:22:04;;;;;;;1999.90;999.90;;;29.40;99.30;;;;;;6243131;23;20012;-85
2023/09/08 12:24:48;;;;;;;1999.90;999.90;;;29.40;99.90;;;;;;6243741;23;20008;-86